Silver Cloud — C6MQ5 — position and weather

sailwx.info

Track history (hours):
 
Tides and Currents Weather Stations Pressure Air Temp Water Temp Dewpoint Dewpoint Depression Visibility Wind Speed Wind Dir Waves Ship Positions

Silver Cloud

Operator: V Ships Leisure SAM

Last reported at 2014-Sep-30 11:32 UTC. Time now 2014-Sep-30 12:04 UTC.
Position N 43°33' E 010°18'.

Length 155 m; draft 5.7 m.

Type: Passenger vessel. MMSI: 309027000.

Date/timePositionNaut miles runAvg speedWind from/ knotsBaromVisibWave heightAir tempDewpointWater temp
2014-Sep-30 11:32N 43°33' E 010°18'0 0.0
2014-Sep-30 10:32N 43°33' E 010°18'0 0.0
2014-Sep-30 09:32N 43°33' E 010°18'0 0.0
2014-Sep-30 08:26N 43°33' E 010°18'0 0.0
2014-Sep-30 07:32N 43°33' E 010°18'0 0.0
2014-Sep-30 06:32N 43°33' E 010°18'0 0.4
2014-Sep-30 05:34N 43°33' E 010°18'7 6.7
2014-Sep-30 04:33N 43°29' E 010°10'9 9.3
2014-Sep-30 03:33N 43°35' E 009°59'8 8.5
2014-Sep-30 02:33N 43°41' E 009°52'9 8.6
2014-Sep-30 01:33N 43°48' E 009°45'9 8.8
2014-Sep-30 00:33N 43°55' E 009°38'9 8.8
2014-Sep-29 23:33N 44°02' E 009°30'8 8.4
2014-Sep-29 22:33N 44°09' E 009°23'8 8.5
2014-Sep-29 21:33N 44°16' E 009°16'3 3.0
2014-Sep-29 20:33N 44°18' E 009°14'0 0.0
2014-Sep-29 19:32N 44°18' E 009°14'0 0.0
2014-Sep-29 18:32N 44°18' E 009°14'0 0.0
2014-Sep-29 17:32N 44°18' E 009°14'0 0.0
2014-Sep-29 16:32N 44°18' E 009°14'0 0.0
2014-Sep-29 15:32N 44°18' E 009°14'0 0.0
2014-Sep-29 14:32N 44°18' E 009°14'0 0.0
2014-Sep-29 13:32N 44°18' E 009°14'0 0.0
2014-Sep-29 12:29N 44°18' E 009°14'0 0.0
2014-Sep-29 11:29N 44°18' E 009°14'0 0.0
2014-Sep-29 10:32N 44°18' E 009°14'0 0.0
2014-Sep-29 09:32N 44°18' E 009°14'0 0.0
2014-Sep-29 08:32N 44°18' E 009°14'0 0.0
2014-Sep-29 07:26N 44°18' E 009°14'0 0.0
2014-Sep-29 06:32N 44°18' E 009°14'0 0.0
2014-Sep-29 05:33N 44°18' E 009°14'7 6.7
2014-Sep-29 04:33N 44°12' E 009°16'1211.9
2014-Sep-29 03:33N 44°00' E 009°12'1212.0
2014-Sep-29 02:33N 43°49' E 009°08'1211.9
2014-Sep-29 01:33N 43°37' E 009°05'1211.8
2014-Sep-29 00:33N 43°25' E 009°01'1211.8
2014-Sep-28 23:33N 43°14' E 008°58'1211.9
2014-Sep-28 22:33N 43°02' E 008°55'29 1.7
2014-Sep-28 05:15N 42°34' E 008°46'5 7.4
2014-Sep-28 04:33N 42°38' E 008°41'1212.3
2014-Sep-28 03:33N 42°45' E 008°27'1212.3
2014-Sep-28 02:33N 42°52' E 008°14'1212.1
2014-Sep-28 01:33N 42°59' E 008°00'1212.1
2014-Sep-28 00:33N 43°06' E 007°47'1212.2
2014-Sep-27 23:33N 43°13' E 007°33'1212.1
2014-Sep-27 22:33N 43°20' E 007°19'1212.2
2014-Sep-27 21:33N 43°26' E 007°05'7 6.7
2014-Sep-27 20:32N 43°32' E 007°01'0 0.0
2014-Sep-27 19:32N 43°32' E 007°01'0 0.0
2014-Sep-27 18:26N 43°32' E 007°01'0 0.0
2014-Sep-27 17:32N 43°32' E 007°01'0 0.0
2014-Sep-27 16:32N 43°32' E 007°01'0 0.0
2014-Sep-27 15:08N 43°32' E 007°01'0 0.0
2014-Sep-27 14:29N 43°32' E 007°01'0 0.0
2014-Sep-27 13:14N 43°32' E 007°01'0 0.0
2014-Sep-27 12:26N 43°32' E 007°01'0 0.0
2014-Sep-27 11:32N 43°32' E 007°01'0 0.0
2014-Sep-27 09:33N 43°32' E 007°01'4 3.8
2014-Sep-27 08:33N 43°29' E 007°02'1110.7
2014-Sep-27 07:33N 43°24' E 007°15'8 8.4
2014-Sep-27 06:33N 43°24' E 007°26'10 9.8
2014-Sep-27 05:33N 43°33' E 007°26'11 0.8
2014-Sep-26 16:31N 43°44' E 007°26'1 0.0
2014-Sep-25 14:33N 43°43' E 007°26'10 9.8
2014-Sep-25 13:33N 43°35' E 007°20'1211.8
2014-Sep-25 12:33N 43°27' E 007°08'24 3.0
2014-Sep-25 04:32N 43°17' E 006°38'0 0.0
2014-Sep-25 03:32N 43°17' E 006°38'0 0.0
2014-Sep-25 02:32N 43°17' E 006°38'0 0.0
2014-Sep-25 01:32N 43°17' E 006°38'0 0.0
2014-Sep-25 00:32N 43°17' E 006°38'0 0.0
2014-Sep-24 23:32N 43°17' E 006°38'0 0.0
2014-Sep-24 22:32N 43°17' E 006°38'0 0.0
2014-Sep-24 21:32N 43°17' E 006°38'0 0.0
2014-Sep-24 20:32N 43°17' E 006°38'0 0.0
2014-Sep-24 19:31N 43°17' E 006°38'0 0.0
2014-Sep-24 18:31N 43°17' E 006°38'0 0.0
2014-Sep-24 17:31N 43°17' E 006°38'0 0.0
2014-Sep-24 16:25N 43°17' E 006°38'0 0.0
2014-Sep-24 15:31N 43°17' E 006°38'0 0.0
2014-Sep-24 14:31N 43°17' E 006°38'0 0.0
2014-Sep-24 13:31N 43°17' E 006°38'0 0.0
2014-Sep-24 12:31N 43°17' E 006°38'0 0.0
2014-Sep-24 11:31N 43°17' E 006°38'0 0.0
2014-Sep-24 10:31N 43°17' E 006°38'0 0.0
2014-Sep-24 09:31N 43°17' E 006°38'0 0.0
2014-Sep-24 08:31N 43°17' E 006°38'0 0.0
2014-Sep-24 07:31N 43°17' E 006°38'0 0.0
2014-Sep-24 06:31N 43°17' E 006°38'0 0.0
2014-Sep-24 05:33N 43°17' E 006°38'6 5.6
2014-Sep-24 04:33N 43°15' E 006°45'1111.4
2014-Sep-24 03:33N 43°04' E 006°42'1211.9
2014-Sep-24 02:33N 42°55' E 006°31'1212.0
2014-Sep-24 01:33N 42°54' E 006°14'1212.3
2014-Sep-24 00:33N 42°55' E 005°58'1212.5
2014-Sep-23 23:33N 42°58' E 005°41'1312.7
2014-Sep-23 22:31N 43°01' E 005°23'1712.6
2014-Sep-23 21:11N 43°05' E 005°01'812.5
2014-Sep-23 20:33N 43°07' E 004°51'1514.7
2014-Sep-23 19:31N 43°11' E 004°30'1310.8
2014-Sep-23 18:16N 43°14' E 004°13'1012.2
2014-Sep-23 17:28N 43°16' E 003°59'1311.5
2014-Sep-23 16:21N 43°24' E 003°45'2 2.2
2014-Sep-23 15:25N 43°24' E 003°42'0 0.0
2014-Sep-23 14:25N 43°24' E 003°42'0 0.0
2014-Sep-23 13:08N 43°24' E 003°42'0 0.0
2014-Sep-23 12:31N 43°24' E 003°42'0 0.0
2014-Sep-23 06:10N 43°24' E 003°42'12912.9
2014-Sep-22 20:09N 41°17' E 004°09'97 5.9
2014-Sep-22 03:32N 39°39' E 004°07'1312.9
2014-Sep-22 02:29N 39°32' E 003°52'1613.1
2014-Sep-22 01:16N 39°23' E 003°35'1013.1
2014-Sep-22 00:32N 39°18' E 003°25'1313.2
2014-Sep-21 23:33N 39°11' E 003°11'1312.9
2014-Sep-21 22:33N 39°05' E 002°56'1212.4
2014-Sep-21 21:34N 39°14' E 002°45'1312.9
2014-Sep-21 20:33N 39°26' E 002°39'7 7.0
2014-Sep-21 19:33N 39°33' E 002°38'0 0.0
2014-Sep-21 18:32N 39°33' E 002°38'0 0.0
2014-Sep-21 17:32N 39°33' E 002°38'0 0.0
2014-Sep-21 16:32N 39°33' E 002°38'0 0.0
2014-Sep-21 15:32N 39°33' E 002°38'0 0.0
2014-Sep-21 14:32N 39°33' E 002°38'0 0.0
2014-Sep-21 13:32N 39°33' E 002°38'0 0.0
2014-Sep-21 12:32N 39°33' E 002°38'0 0.0
2014-Sep-21 11:32N 39°33' E 002°38'0 0.0
2014-Sep-21 10:32N 39°33' E 002°38'0 0.0
2014-Sep-21 09:18N 39°33' E 002°38'0 0.0
2014-Sep-21 08:32N 39°33' E 002°38'0 0.0
2014-Sep-21 07:32N 39°33' E 002°38'0 0.0
2014-Sep-21 06:32N 39°33' E 002°38'0 0.0
2014-Sep-21 05:33N 39°33' E 002°38'6 5.9
2014-Sep-21 04:33N 39°28' E 002°35'9 9.4
2014-Sep-21 03:33N 39°21' E 002°26'9 8.6
2014-Sep-21 02:33N 39°16' E 002°17'9 8.8
2014-Sep-21 01:33N 39°11' E 002°08'8 8.5
2014-Sep-21 00:33N 39°06' E 001°59'8 8.5
2014-Sep-20 23:33N 39°01' E 001°50'9 8.8
2014-Sep-20 22:33N 38°56' E 001°41'8 8.3
2014-Sep-20 21:33N 38°54' E 001°31'  
Track history (hours):
 
Tides and Currents Weather Stations Pressure Air Temp Water Temp Dewpoint Dewpoint Depression Visibility Wind Speed Wind Dir Waves Ship Positions

Silver Cloud

Operator: V Ships Leisure SAM

Last reported at 2014-Sep-30 11:32 UTC. Time now 2014-Sep-30 12:04 UTC.
Position N 43°33' E 010°18'.

Length 155 m; draft 5.7 m.

Type: Passenger vessel. MMSI: 309027000.

Date/timePositionNaut miles runAvg speedWind from/ knotsBaromVisibWave heightAir tempDewpointWater temp
2014-Sep-30 11:32N 43°33' E 010°18'0 0.0
2014-Sep-30 10:32N 43°33' E 010°18'0 0.0
2014-Sep-30 09:32N 43°33' E 010°18'0 0.0
2014-Sep-30 08:26N 43°33' E 010°18'0 0.0
2014-Sep-30 07:32N 43°33' E 010°18'0 0.0
2014-Sep-30 06:32N 43°33' E 010°18'0 0.4
2014-Sep-30 05:34N 43°33' E 010°18'7 6.7
2014-Sep-30 04:33N 43°29' E 010°10'9 9.3
2014-Sep-30 03:33N 43°35' E 009°59'8 8.5
2014-Sep-30 02:33N 43°41' E 009°52'9 8.6
2014-Sep-30 01:33N 43°48' E 009°45'9 8.8
2014-Sep-30 00:33N 43°55' E 009°38'9 8.8
2014-Sep-29 23:33N 44°02' E 009°30'8 8.4
2014-Sep-29 22:33N 44°09' E 009°23'8 8.5
2014-Sep-29 21:33N 44°16' E 009°16'3 3.0
2014-Sep-29 20:33N 44°18' E 009°14'0 0.0
2014-Sep-29 19:32N 44°18' E 009°14'0 0.0
2014-Sep-29 18:32N 44°18' E 009°14'0 0.0
2014-Sep-29 17:32N 44°18' E 009°14'0 0.0
2014-Sep-29 16:32N 44°18' E 009°14'0 0.0
2014-Sep-29 15:32N 44°18' E 009°14'0 0.0
2014-Sep-29 14:32N 44°18' E 009°14'0 0.0
2014-Sep-29 13:32N 44°18' E 009°14'0 0.0
2014-Sep-29 12:29N 44°18' E 009°14'0 0.0
2014-Sep-29 11:29N 44°18' E 009°14'0 0.0
2014-Sep-29 10:32N 44°18' E 009°14'0 0.0
2014-Sep-29 09:32N 44°18' E 009°14'0 0.0
2014-Sep-29 08:32N 44°18' E 009°14'0 0.0
2014-Sep-29 07:26N 44°18' E 009°14'0 0.0
2014-Sep-29 06:32N 44°18' E 009°14'0 0.0
2014-Sep-29 05:33N 44°18' E 009°14'7 6.7
2014-Sep-29 04:33N 44°12' E 009°16'1211.9
2014-Sep-29 03:33N 44°00' E 009°12'1212.0
2014-Sep-29 02:33N 43°49' E 009°08'1211.9
2014-Sep-29 01:33N 43°37' E 009°05'1211.8
2014-Sep-29 00:33N 43°25' E 009°01'1211.8
2014-Sep-28 23:33N 43°14' E 008°58'1211.9
2014-Sep-28 22:33N 43°02' E 008°55'29 1.7
2014-Sep-28 05:15N 42°34' E 008°46'5 7.4
2014-Sep-28 04:33N 42°38' E 008°41'1212.3
2014-Sep-28 03:33N 42°45' E 008°27'1212.3
2014-Sep-28 02:33N 42°52' E 008°14'1212.1
2014-Sep-28 01:33N 42°59' E 008°00'1212.1
2014-Sep-28 00:33N 43°06' E 007°47'1212.2
2014-Sep-27 23:33N 43°13' E 007°33'1212.1
2014-Sep-27 22:33N 43°20' E 007°19'1212.2
2014-Sep-27 21:33N 43°26' E 007°05'7 6.7
2014-Sep-27 20:32N 43°32' E 007°01'0 0.0
2014-Sep-27 19:32N 43°32' E 007°01'0 0.0
2014-Sep-27 18:26N 43°32' E 007°01'0 0.0
2014-Sep-27 17:32N 43°32' E 007°01'0 0.0
2014-Sep-27 16:32N 43°32' E 007°01'0 0.0
2014-Sep-27 15:08N 43°32' E 007°01'0 0.0
2014-Sep-27 14:29N 43°32' E 007°01'0 0.0
2014-Sep-27 13:14N 43°32' E 007°01'0 0.0
2014-Sep-27 12:26N 43°32' E 007°01'0 0.0
2014-Sep-27 11:32N 43°32' E 007°01'0 0.0
2014-Sep-27 09:33N 43°32' E 007°01'4 3.8
2014-Sep-27 08:33N 43°29' E 007°02'1110.7
2014-Sep-27 07:33N 43°24' E 007°15'8 8.4
2014-Sep-27 06:33N 43°24' E 007°26'10 9.8
2014-Sep-27 05:33N 43°33' E 007°26'11 0.8
2014-Sep-26 16:31N 43°44' E 007°26'1 0.0
2014-Sep-25 14:33N 43°43' E 007°26'10 9.8
2014-Sep-25 13:33N 43°35' E 007°20'1211.8
2014-Sep-25 12:33N 43°27' E 007°08'24 3.0
2014-Sep-25 04:32N 43°17' E 006°38'0 0.0
2014-Sep-25 03:32N 43°17' E 006°38'0 0.0
2014-Sep-25 02:32N 43°17' E 006°38'0 0.0
2014-Sep-25 01:32N 43°17' E 006°38'0 0.0
2014-Sep-25 00:32N 43°17' E 006°38'0 0.0
2014-Sep-24 23:32N 43°17' E 006°38'0 0.0
2014-Sep-24 22:32N 43°17' E 006°38'0 0.0
2014-Sep-24 21:32N 43°17' E 006°38'0 0.0
2014-Sep-24 20:32N 43°17' E 006°38'0 0.0
2014-Sep-24 19:31N 43°17' E 006°38'0 0.0
2014-Sep-24 18:31N 43°17' E 006°38'0 0.0
2014-Sep-24 17:31N 43°17' E 006°38'0 0.0
2014-Sep-24 16:25N 43°17' E 006°38'0 0.0
2014-Sep-24 15:31N 43°17' E 006°38'0 0.0
2014-Sep-24 14:31N 43°17' E 006°38'0 0.0
2014-Sep-24 13:31N 43°17' E 006°38'0 0.0
2014-Sep-24 12:31N 43°17' E 006°38'0 0.0
2014-Sep-24 11:31N 43°17' E 006°38'0 0.0
2014-Sep-24 10:31N 43°17' E 006°38'0 0.0
2014-Sep-24 09:31N 43°17' E 006°38'0 0.0
2014-Sep-24 08:31N 43°17' E 006°38'0 0.0
2014-Sep-24 07:31N 43°17' E 006°38'0 0.0
2014-Sep-24 06:31N 43°17' E 006°38'0 0.0
2014-Sep-24 05:33N 43°17' E 006°38'6 5.6
2014-Sep-24 04:33N 43°15' E 006°45'1111.4
2014-Sep-24 03:33N 43°04' E 006°42'1211.9
2014-Sep-24 02:33N 42°55' E 006°31'1212.0
2014-Sep-24 01:33N 42°54' E 006°14'1212.3
2014-Sep-24 00:33N 42°55' E 005°58'1212.5
2014-Sep-23 23:33N 42°58' E 005°41'1312.7
2014-Sep-23 22:31N 43°01' E 005°23'1712.6
2014-Sep-23 21:11N 43°05' E 005°01'812.5
2014-Sep-23 20:33N 43°07' E 004°51'1514.7
2014-Sep-23 19:31N 43°11' E 004°30'1310.8
2014-Sep-23 18:16N 43°14' E 004°13'1012.2
2014-Sep-23 17:28N 43°16' E 003°59'1311.5
2014-Sep-23 16:21N 43°24' E 003°45'2 2.2
2014-Sep-23 15:25N 43°24' E 003°42'0 0.0
2014-Sep-23 14:25N 43°24' E 003°42'0 0.0
2014-Sep-23 13:08N 43°24' E 003°42'0 0.0
2014-Sep-23 12:31N 43°24' E 003°42'0 0.0
2014-Sep-23 06:10N 43°24' E 003°42'12912.9
2014-Sep-22 20:09N 41°17' E 004°09'97 5.9
2014-Sep-22 03:32N 39°39' E 004°07'1312.9
2014-Sep-22 02:29N 39°32' E 003°52'1613.1
2014-Sep-22 01:16N 39°23' E 003°35'1013.1
2014-Sep-22 00:32N 39°18' E 003°25'1313.2
2014-Sep-21 23:33N 39°11' E 003°11'1312.9
2014-Sep-21 22:33N 39°05' E 002°56'1212.4
2014-Sep-21 21:34N 39°14' E 002°45'1312.9
2014-Sep-21 20:33N 39°26' E 002°39'7 7.0
2014-Sep-21 19:33N 39°33' E 002°38'0 0.0
2014-Sep-21 18:32N 39°33' E 002°38'0 0.0
2014-Sep-21 17:32N 39°33' E 002°38'0 0.0
2014-Sep-21 16:32N 39°33' E 002°38'0 0.0
2014-Sep-21 15:32N 39°33' E 002°38'0 0.0
2014-Sep-21 14:32N 39°33' E 002°38'0 0.0
2014-Sep-21 13:32N 39°33' E 002°38'0 0.0
2014-Sep-21 12:32N 39°33' E 002°38'0 0.0
2014-Sep-21 11:32N 39°33' E 002°38'0 0.0
2014-Sep-21 10:32N 39°33' E 002°38'0 0.0
2014-Sep-21 09:18N 39°33' E 002°38'0 0.0
2014-Sep-21 08:32N 39°33' E 002°38'0 0.0
2014-Sep-21 07:32N 39°33' E 002°38'0 0.0
2014-Sep-21 06:32N 39°33' E 002°38'0 0.0
2014-Sep-21 05:33N 39°33' E 002°38'6 5.9
2014-Sep-21 04:33N 39°28' E 002°35'9 9.4
2014-Sep-21 03:33N 39°21' E 002°26'9 8.6
2014-Sep-21 02:33N 39°16' E 002°17'9 8.8
2014-Sep-21 01:33N 39°11' E 002°08'8 8.5
2014-Sep-21 00:33N 39°06' E 001°59'8 8.5
2014-Sep-20 23:33N 39°01' E 001°50'9 8.8
2014-Sep-20 22:33N 38°56' E 001°41'8 8.3
2014-Sep-20 21:33N 38°54' E 001°31'  

Dump ship's entire track history